sensor_id;sensor_type;location;lat;lon;timestamp;P1;durP1;ratioP1;P2;durP2;ratioP2
28796;SDS011;24974;54.444;18.560;2023-02-01T00:00:27;14.48;;;3.97;;
28796;SDS011;24974;54.444;18.560;2023-02-01T00:02:58;19.33;;;5.93;;
28796;SDS011;24974;54.444;18.560;2023-02-01T00:05:28;12.70;;;3.65;;
28796;SDS011;24974;54.444;18.560;2023-02-01T00:07:59;17.73;;;4.72;;
28796;SDS011;24974;54.444;18.560;2023-02-01T00:10:30;12.13;;;3.97;;
28796;SDS011;24974;54.444;18.560;2023-02-01T00:13:01;13.82;;;4.22;;
28796;SDS011;24974;54.444;18.560;2023-02-01T00:15:31;10.27;;;4.53;;
28796;SDS011;24974;54.444;18.560;2023-02-01T00:18:03;14.70;;;5.78;;
28796;SDS011;24974;54.444;18.560;2023-02-01T00:20:34;14.13;;;4.47;;
28796;SDS011;24974;54.444;18.560;2023-02-01T00:23:05;15.07;;;3.60;;
28796;SDS011;24974;54.444;18.560;2023-02-01T06:42:39;25.65;;;5.70;;
28796;SDS011;24974;54.444;18.560;2023-02-01T06:45:10;20.20;;;5.25;;
28796;SDS011;24974;54.444;18.560;2023-02-01T06:47:41;16.60;;;5.75;;
28796;SDS011;24974;54.444;18.560;2023-02-01T06:50:12;19.08;;;4.82;;
28796;SDS011;24974;54.444;18.560;2023-02-01T06:52:43;17.17;;;5.40;;
28796;SDS011;24974;54.444;18.560;2023-02-01T06:55:14;23.77;;;5.70;;
28796;SDS011;24974;54.444;18.560;2023-02-01T06:57:45;26.23;;;5.80;;
28796;SDS011;24974;54.444;18.560;2023-02-01T07:00:16;23.48;;;4.47;;
28796;SDS011;24974;54.444;18.560;2023-02-01T07:02:47;17.92;;;5.10;;
28796;SDS011;24974;54.444;18.560;2023-02-01T07:05:18;15.93;;;5.10;;
28796;SDS011;24974;54.444;18.560;2023-02-01T07:07:49;17.45;;;4.97;;
28796;SDS011;24974;54.444;18.560;2023-02-01T07:10:20;26.08;;;5.55;;
28796;SDS011;24974;54.444;18.560;2023-02-01T07:12:51;24.38;;;6.72;;
28796;SDS011;24974;54.444;18.560;2023-02-01T07:15:22;24.48;;;7.18;;
28796;SDS011;24974;54.444;18.560;2023-02-01T07:17:56;28.15;;;6.63;;
28796;SDS011;24974;54.444;18.560;2023-02-01T07:20:27;26.20;;;5.78;;
28796;SDS011;24974;54.444;18.560;2023-02-01T07:22:57;22.30;;;6.22;;
28796;SDS011;24974;54.444;18.560;2023-02-01T07:25:28;23.33;;;6.03;;
28796;SDS011;24974;54.444;18.560;2023-02-01T07:27:59;23.05;;;6.38;;
28796;SDS011;24974;54.444;18.560;2023-02-01T07:30:30;32.97;;;10.93;;
28796;SDS011;24974;54.444;18.560;2023-02-01T07:33:01;22.45;;;6.57;;
28796;SDS011;24974;54.444;18.560;2023-02-01T07:35:32;24.95;;;6.15;;
28796;SDS011;24974;54.444;18.560;2023-02-01T07:38:03;26.83;;;6.35;;
28796;SDS011;24974;54.444;18.560;2023-02-01T07:40:33;18.77;;;5.30;;
28796;SDS011;24974;54.444;18.560;2023-02-01T07:43:06;31.80;;;7.68;;
28796;SDS011;24974;54.444;18.560;2023-02-01T07:45:38;25.40;;;6.25;;
28796;SDS011;24974;54.444;18.560;2023-02-01T07:48:09;25.27;;;8.90;;
28796;SDS011;24974;54.444;18.560;2023-02-01T07:50:39;18.75;;;5.07;;
28796;SDS011;24974;54.444;18.560;2023-02-01T07:53:10;36.35;;;8.73;;
28796;SDS011;24974;54.444;18.560;2023-02-01T07:55:41;29.52;;;7.30;;
28796;SDS011;24974;54.444;18.560;2023-02-01T07:58:12;28.73;;;6.22;;
28796;SDS011;24974;54.444;18.560;2023-02-01T08:00:43;28.20;;;10.75;;
28796;SDS011;24974;54.444;18.560;2023-02-01T08:03:32;30.70;;;6.95;;
28796;SDS011;24974;54.444;18.560;2023-02-01T08:06:03;23.77;;;6.63;;
28796;SDS011;24974;54.444;18.560;2023-02-01T08:08:34;24.40;;;6.45;;
28796;SDS011;24974;54.444;18.560;2023-02-01T08:11:06;18.77;;;6.43;;
28796;SDS011;24974;54.444;18.560;2023-02-01T08:13:37;24.10;;;7.28;;
28796;SDS011;24974;54.444;18.560;2023-02-01T08:16:09;23.25;;;6.70;;
28796;SDS011;24974;54.444;18.560;2023-02-01T08:18:41;24.33;;;6.93;;
28796;SDS011;24974;54.444;18.560;2023-02-01T08:21:13;30.95;;;7.30;;
28796;SDS011;24974;54.444;18.560;2023-02-01T08:23:52;19.92;;;7.32;;
28796;SDS011;24974;54.444;18.560;2023-02-01T08:26:24;27.63;;;6.60;;
28796;SDS011;24974;54.444;18.560;2023-02-01T08:28:57;32.50;;;6.75;;
28796;SDS011;24974;54.444;18.560;2023-02-01T08:31:30;29.98;;;10.73;;
28796;SDS011;24974;54.444;18.560;2023-02-01T08:34:01;47.45;;;27.58;;
28796;SDS011;24974;54.444;18.560;2023-02-01T08:36:34;28.17;;;6.30;;
28796;SDS011;24974;54.444;18.560;2023-02-01T08:39:05;25.35;;;5.65;;
28796;SDS011;24974;54.444;18.560;2023-02-01T08:41:39;32.65;;;9.30;;
28796;SDS011;24974;54.444;18.560;2023-02-01T08:44:12;27.02;;;6.47;;
28796;SDS011;24974;54.444;18.560;2023-02-01T08:46:43;27.20;;;6.70;;
28796;SDS011;24974;54.444;18.560;2023-02-01T08:49:14;23.00;;;8.52;;
28796;SDS011;24974;54.444;18.560;2023-02-01T08:51:44;28.10;;;7.10;;
28796;SDS011;24974;54.444;18.560;2023-02-01T08:54:15;39.88;;;7.03;;
28796;SDS011;24974;54.444;18.560;2023-02-01T08:56:46;32.25;;;7.13;;
28796;SDS011;24974;54.444;18.560;2023-02-01T08:59:17;27.55;;;7.15;;
28796;SDS011;24974;54.444;18.560;2023-02-01T09:01:48;25.00;;;6.63;;
28796;SDS011;24974;54.444;18.560;2023-02-01T09:04:19;48.30;;;27.50;;
28796;SDS011;24974;54.444;18.560;2023-02-01T09:06:49;32.33;;;7.05;;
28796;SDS011;24974;54.444;18.560;2023-02-01T09:09:23;30.13;;;6.47;;
28796;SDS011;24974;54.444;18.560;2023-02-01T09:11:54;24.60;;;9.80;;
28796;SDS011;24974;54.444;18.560;2023-02-01T09:14:25;23.92;;;6.88;;
28796;SDS011;24974;54.444;18.560;2023-02-01T09:16:56;20.27;;;7.25;;
28796;SDS011;24974;54.444;18.560;2023-02-01T09:19:27;23.55;;;6.90;;
28796;SDS011;24974;54.444;18.560;2023-02-01T09:21:58;29.45;;;11.60;;
28796;SDS011;24974;54.444;18.560;2023-02-01T09:24:30;25.02;;;6.68;;
28796;SDS011;24974;54.444;18.560;2023-02-01T09:27:03;22.80;;;6.55;;
28796;SDS011;24974;54.444;18.560;2023-02-01T09:29:34;21.38;;;5.93;;
28796;SDS011;24974;54.444;18.560;2023-02-01T09:32:05;21.75;;;7.53;;
28796;SDS011;24974;54.444;18.560;2023-02-01T09:34:36;18.15;;;5.28;;
28796;SDS011;24974;54.444;18.560;2023-02-01T09:37:07;17.02;;;5.10;;
28796;SDS011;24974;54.444;18.560;2023-02-01T09:39:38;19.08;;;5.68;;
28796;SDS011;24974;54.444;18.560;2023-02-01T09:45:14;19.70;;;4.78;;
28796;SDS011;24974;54.444;18.560;2023-02-01T09:47:56;22.75;;;6.40;;
28796;SDS011;24974;54.444;18.560;2023-02-01T09:50:33;19.13;;;5.00;;
28796;SDS011;24974;54.444;18.560;2023-02-01T09:56:23;20.77;;;5.10;;
28796;SDS011;24974;54.444;18.560;2023-02-01T10:02:11;27.70;;;6.63;;
28796;SDS011;24974;54.444;18.560;2023-02-01T10:04:46;17.33;;;5.95;;
28796;SDS011;24974;54.444;18.560;2023-02-01T10:10:30;22.75;;;5.55;;
28796;SDS011;24974;54.444;18.560;2023-02-01T10:18:57;19.00;;;4.75;;
28796;SDS011;24974;54.444;18.560;2023-02-01T10:21:51;17.48;;;4.70;;
28796;SDS011;24974;54.444;18.560;2023-02-01T10:24:28;13.18;;;5.43;;
28796;SDS011;24974;54.444;18.560;2023-02-01T10:32:47;17.67;;;5.32;;
28796;SDS011;24974;54.444;18.560;2023-02-01T10:35:24;20.05;;;5.25;;
28796;SDS011;24974;54.444;18.560;2023-02-01T10:38:02;19.08;;;5.43;;
28796;SDS011;24974;54.444;18.560;2023-02-01T10:40:38;24.05;;;5.85;;
28796;SDS011;24974;54.444;18.560;2023-02-01T10:43:10;21.25;;;5.53;;
28796;SDS011;24974;54.444;18.560;2023-02-01T10:45:41;24.98;;;7.30;;
28796;SDS011;24974;54.444;18.560;2023-02-01T10:48:13;21.23;;;5.60;;
28796;SDS011;24974;54.444;18.560;2023-02-01T10:51:00;12.73;;;8.13;;
28796;SDS011;24974;54.444;18.560;2023-02-01T10:53:55;19.15;;;7.20;;
28796;SDS011;24974;54.444;18.560;2023-02-01T10:56:31;17.10;;;4.55;;
28796;SDS011;24974;54.444;18.560;2023-02-01T10:59:03;16.75;;;5.00;;
28796;SDS011;24974;54.444;18.560;2023-02-01T11:01:45;24.92;;;5.15;;
28796;SDS011;24974;54.444;18.560;2023-02-01T11:04:19;20.10;;;4.57;;
28796;SDS011;24974;54.444;18.560;2023-02-01T11:07:05;17.02;;;4.82;;
28796;SDS011;24974;54.444;18.560;2023-02-01T11:09:38;21.23;;;5.10;;
28796;SDS011;24974;54.444;18.560;2023-02-01T11:17:43;13.23;;;4.65;;
28796;SDS011;24974;54.444;18.560;2023-02-01T11:20:17;21.70;;;7.35;;
28796;SDS011;24974;54.444;18.560;2023-02-01T11:22:54;19.38;;;5.18;;
28796;SDS011;24974;54.444;18.560;2023-02-01T11:25:26;14.50;;;4.75;;
28796;SDS011;24974;54.444;18.560;2023-02-01T11:27:57;17.13;;;5.88;;
28796;SDS011;24974;54.444;18.560;2023-02-01T11:30:34;12.40;;;4.93;;
28796;SDS011;24974;54.444;18.560;2023-02-01T11:33:07;14.73;;;4.72;;
28796;SDS011;24974;54.444;18.560;2023-02-01T11:35:46;11.70;;;3.92;;
28796;SDS011;24974;54.444;18.560;2023-02-01T11:38:29;9.95;;;3.72;;
28796;SDS011;24974;54.444;18.560;2023-02-01T11:44:21;5.50;;;2.90;;
28796;SDS011;24974;54.444;18.560;2023-02-01T11:47:12;6.45;;;3.47;;
28796;SDS011;24974;54.444;18.560;2023-02-01T11:50:01;10.15;;;4.20;;
28796;SDS011;24974;54.444;18.560;2023-02-01T11:55:48;8.55;;;5.50;;
28796;SDS011;24974;54.444;18.560;2023-02-01T12:01:19;6.47;;;3.38;;
28796;SDS011;24974;54.444;18.560;2023-02-01T12:06:51;5.90;;;4.55;;
28796;SDS011;24974;54.444;18.560;2023-02-01T12:09:42;3.50;;;2.75;;
28796;SDS011;24974;54.444;18.560;2023-02-01T12:24:21;4.88;;;2.95;;
28796;SDS011;24974;54.444;18.560;2023-02-01T12:29:59;5.13;;;2.85;;
28796;SDS011;24974;54.444;18.560;2023-02-01T12:41:41;7.60;;;3.28;;
28796;SDS011;24974;54.444;18.560;2023-02-01T12:52:39;6.45;;;3.60;;
28796;SDS011;24974;54.444;18.560;2023-02-01T12:58:11;7.28;;;3.75;;
28796;SDS011;24974;54.444;18.560;2023-02-01T13:00:59;7.13;;;3.25;;
28796;SDS011;24974;54.444;18.560;2023-02-01T13:06:34;8.68;;;4.38;;
28796;SDS011;24974;54.444;18.560;2023-02-01T13:09:27;11.67;;;3.80;;
28796;SDS011;24974;54.444;18.560;2023-02-01T13:12:28;12.07;;;4.05;;
28796;SDS011;24974;54.444;18.560;2023-02-01T13:15:46;11.98;;;4.47;;
28796;SDS011;24974;54.444;18.560;2023-02-01T13:18:00;12.52;;;4.20;;
28796;SDS011;24974;54.444;18.560;2023-02-01T13:20:42;16.73;;;12.95;;
28796;SDS011;24974;54.444;18.560;2023-02-01T13:23:35;7.20;;;3.67;;
28796;SDS011;24974;54.444;18.560;2023-02-01T13:26:09;12.25;;;4.28;;
28796;SDS011;24974;54.444;18.560;2023-02-01T13:42:45;14.27;;;4.72;;
28796;SDS011;24974;54.444;18.560;2023-02-01T13:45:23;16.23;;;4.72;;
28796;SDS011;24974;54.444;18.560;2023-02-01T13:47:58;14.40;;;4.50;;
28796;SDS011;24974;54.444;18.560;2023-02-01T13:50:34;18.38;;;5.95;;
28796;SDS011;24974;54.444;18.560;2023-02-01T13:55:46;10.38;;;4.63;;
28796;SDS011;24974;54.444;18.560;2023-02-01T13:58:38;13.93;;;5.15;;
28796;SDS011;24974;54.444;18.560;2023-02-01T14:11:54;16.20;;;5.57;;
28796;SDS011;24974;54.444;18.560;2023-02-01T14:19:31;19.30;;;5.40;;
28796;SDS011;24974;54.444;18.560;2023-02-01T14:22:48;18.65;;;5.07;;
28796;SDS011;24974;54.444;18.560;2023-02-01T14:25:14;17.00;;;5.38;;
28796;SDS011;24974;54.444;18.560;2023-02-01T14:27:48;17.85;;;5.35;;
28796;SDS011;24974;54.444;18.560;2023-02-01T14:30:19;13.85;;;5.43;;
28796;SDS011;24974;54.444;18.560;2023-02-01T14:32:50;8.65;;;4.40;;
28796;SDS011;24974;54.444;18.560;2023-02-01T14:35:25;8.73;;;4.88;;
28796;SDS011;24974;54.444;18.560;2023-02-01T14:38:00;11.48;;;3.50;;
28796;SDS011;24974;54.444;18.560;2023-02-01T14:40:37;14.25;;;4.28;;
28796;SDS011;24974;54.444;18.560;2023-02-01T14:43:09;10.90;;;3.70;;
28796;SDS011;24974;54.444;18.560;2023-02-01T14:50:46;7.95;;;4.07;;
28796;SDS011;24974;54.444;18.560;2023-02-01T14:53:27;7.13;;;4.82;;
28796;SDS011;24974;54.444;18.560;2023-02-01T15:04:11;10.48;;;4.72;;
28796;SDS011;24974;54.444;18.560;2023-02-01T15:06:47;9.75;;;4.38;;
28796;SDS011;24974;54.444;18.560;2023-02-01T15:09:25;8.85;;;4.53;;
28796;SDS011;24974;54.444;18.560;2023-02-01T15:14:46;6.05;;;4.38;;
28796;SDS011;24974;54.444;18.560;2023-02-01T15:17:34;8.13;;;4.55;;
28796;SDS011;24974;54.444;18.560;2023-02-01T15:22:57;8.43;;;4.68;;
28796;SDS011;24974;54.444;18.560;2023-02-01T15:25:34;8.23;;;4.80;;
28796;SDS011;24974;54.444;18.560;2023-02-01T15:28:11;12.27;;;5.10;;
28796;SDS011;24974;54.444;18.560;2023-02-01T15:33:33;10.13;;;5.50;;
28796;SDS011;24974;54.444;18.560;2023-02-01T15:38:36;11.57;;;5.18;;
28796;SDS011;24974;54.444;18.560;2023-02-01T15:41:16;12.77;;;6.70;;
28796;SDS011;24974;54.444;18.560;2023-02-01T15:46:30;13.57;;;5.97;;
28796;SDS011;24974;54.444;18.560;2023-02-01T15:49:23;17.10;;;6.72;;
28796;SDS011;24974;54.444;18.560;2023-02-01T15:52:12;14.80;;;5.90;;
28796;SDS011;24974;54.444;18.560;2023-02-01T15:55:02;15.10;;;6.13;;
28796;SDS011;24974;54.444;18.560;2023-02-01T15:57:36;18.75;;;6.57;;
28796;SDS011;24974;54.444;18.560;2023-02-01T16:03:20;24.90;;;5.93;;
28796;SDS011;24974;54.444;18.560;2023-02-01T16:06:12;17.08;;;6.15;;
28796;SDS011;24974;54.444;18.560;2023-02-01T16:11:30;14.70;;;5.35;;
28796;SDS011;24974;54.444;18.560;2023-02-01T16:14:03;20.92;;;6.15;;
28796;SDS011;24974;54.444;18.560;2023-02-01T16:16:34;24.13;;;6.60;;
28796;SDS011;24974;54.444;18.560;2023-02-01T16:19:05;24.58;;;6.72;;
28796;SDS011;24974;54.444;18.560;2023-02-01T16:21:35;20.25;;;5.90;;
28796;SDS011;24974;54.444;18.560;2023-02-01T16:24:06;15.68;;;6.25;;
28796;SDS011;24974;54.444;18.560;2023-02-01T16:26:37;14.77;;;5.95;;
28796;SDS011;24974;54.444;18.560;2023-02-01T16:29:08;21.70;;;7.63;;
28796;SDS011;24974;54.444;18.560;2023-02-01T16:31:39;23.75;;;7.53;;
28796;SDS011;24974;54.444;18.560;2023-02-01T16:34:13;15.85;;;6.18;;
28796;SDS011;24974;54.444;18.560;2023-02-01T16:36:47;22.38;;;7.40;;
28796;SDS011;24974;54.444;18.560;2023-02-01T16:39:23;21.10;;;6.53;;
28796;SDS011;24974;54.444;18.560;2023-02-01T16:41:54;21.65;;;6.95;;
28796;SDS011;24974;54.444;18.560;2023-02-01T16:44:25;23.95;;;6.90;;
28796;SDS011;24974;54.444;18.560;2023-02-01T16:46:56;21.90;;;7.28;;
28796;SDS011;24974;54.444;18.560;2023-02-01T16:49:27;21.17;;;6.93;;
28796;SDS011;24974;54.444;18.560;2023-02-01T16:51:58;23.25;;;7.28;;
28796;SDS011;24974;54.444;18.560;2023-02-01T16:54:29;14.90;;;6.85;;
28796;SDS011;24974;54.444;18.560;2023-02-01T16:57:00;26.40;;;7.63;;
28796;SDS011;24974;54.444;18.560;2023-02-01T16:59:31;25.23;;;6.95;;
28796;SDS011;24974;54.444;18.560;2023-02-01T17:02:02;22.30;;;6.70;;
28796;SDS011;24974;54.444;18.560;2023-02-01T17:04:32;19.70;;;6.85;;
28796;SDS011;24974;54.444;18.560;2023-02-01T17:07:03;18.42;;;6.57;;
28796;SDS011;24974;54.444;18.560;2023-02-01T17:09:38;19.25;;;7.43;;
28796;SDS011;24974;54.444;18.560;2023-02-01T17:12:43;20.15;;;6.30;;
28796;SDS011;24974;54.444;18.560;2023-02-01T17:15:07;16.10;;;6.13;;
28796;SDS011;24974;54.444;18.560;2023-02-01T17:17:40;13.10;;;6.15;;
28796;SDS011;24974;54.444;18.560;2023-02-01T17:20:18;16.55;;;6.22;;
28796;SDS011;24974;54.444;18.560;2023-02-01T17:22:52;17.00;;;5.50;;
28796;SDS011;24974;54.444;18.560;2023-02-01T17:25:23;18.50;;;5.38;;
28796;SDS011;24974;54.444;18.560;2023-02-01T17:27:56;14.05;;;6.00;;
28796;SDS011;24974;54.444;18.560;2023-02-01T17:30:27;15.90;;;6.00;;
28796;SDS011;24974;54.444;18.560;2023-02-01T17:32:58;12.27;;;5.50;;
28796;SDS011;24974;54.444;18.560;2023-02-01T17:35:29;18.15;;;6.07;;
28796;SDS011;24974;54.444;18.560;2023-02-01T17:38:01;13.35;;;5.43;;
28796;SDS011;24974;54.444;18.560;2023-02-01T17:40:32;12.00;;;5.43;;
28796;SDS011;24974;54.444;18.560;2023-02-01T17:43:04;22.45;;;7.45;;
28796;SDS011;24974;54.444;18.560;2023-02-01T17:45:36;16.38;;;8.40;;
28796;SDS011;24974;54.444;18.560;2023-02-01T17:48:11;18.70;;;7.63;;
28796;SDS011;24974;54.444;18.560;2023-02-01T17:50:42;16.85;;;6.72;;
28796;SDS011;24974;54.444;18.560;2023-02-01T17:53:13;21.02;;;7.43;;
28796;SDS011;24974;54.444;18.560;2023-02-01T17:55:46;16.10;;;6.82;;
28796;SDS011;24974;54.444;18.560;2023-02-01T17:58:17;19.02;;;6.80;;
28796;SDS011;24974;54.444;18.560;2023-02-01T18:00:48;20.92;;;7.65;;
28796;SDS011;24974;54.444;18.560;2023-02-01T18:03:26;20.55;;;7.22;;
28796;SDS011;24974;54.444;18.560;2023-02-01T18:05:59;17.27;;;6.43;;
28796;SDS011;24974;54.444;18.560;2023-02-01T18:08:31;23.52;;;7.18;;
28796;SDS011;24974;54.444;18.560;2023-02-01T18:11:07;22.15;;;7.25;;
28796;SDS011;24974;54.444;18.560;2023-02-01T18:13:41;19.05;;;7.32;;
28796;SDS011;24974;54.444;18.560;2023-02-01T18:16:34;25.05;;;7.20;;
28796;SDS011;24974;54.444;18.560;2023-02-01T18:19:04;24.50;;;7.00;;
28796;SDS011;24974;54.444;18.560;2023-02-01T18:21:39;21.98;;;6.75;;
28796;SDS011;24974;54.444;18.560;2023-02-01T18:24:12;27.13;;;6.95;;
28796;SDS011;24974;54.444;18.560;2023-02-01T18:26:44;29.38;;;7.90;;
28796;SDS011;24974;54.444;18.560;2023-02-01T18:29:15;22.52;;;6.68;;
28796;SDS011;24974;54.444;18.560;2023-02-01T18:31:47;23.23;;;7.55;;
28796;SDS011;24974;54.444;18.560;2023-02-01T18:34:21;24.05;;;7.55;;
28796;SDS011;24974;54.444;18.560;2023-02-01T18:36:54;25.23;;;8.07;;
28796;SDS011;24974;54.444;18.560;2023-02-01T18:39:25;26.25;;;7.75;;
28796;SDS011;24974;54.444;18.560;2023-02-01T18:41:56;27.20;;;7.32;;
28796;SDS011;24974;54.444;18.560;2023-02-01T18:44:28;23.30;;;7.13;;
28796;SDS011;24974;54.444;18.560;2023-02-01T18:46:59;18.58;;;7.18;;
28796;SDS011;24974;54.444;18.560;2023-02-01T18:49:30;27.85;;;7.47;;
28796;SDS011;24974;54.444;18.560;2023-02-01T18:52:00;24.05;;;7.65;;
28796;SDS011;24974;54.444;18.560;2023-02-01T18:54:31;22.33;;;6.90;;
28796;SDS011;24974;54.444;18.560;2023-02-01T18:57:02;22.92;;;6.30;;
28796;SDS011;24974;54.444;18.560;2023-02-01T18:59:33;18.45;;;6.32;;
28796;SDS011;24974;54.444;18.560;2023-02-01T19:02:04;18.00;;;5.82;;
28796;SDS011;24974;54.444;18.560;2023-02-01T19:04:36;20.60;;;6.75;;
28796;SDS011;24974;54.444;18.560;2023-02-01T19:07:07;23.40;;;5.90;;
28796;SDS011;24974;54.444;18.560;2023-02-01T19:09:37;14.43;;;6.53;;
28796;SDS011;24974;54.444;18.560;2023-02-01T19:12:08;17.30;;;6.53;;
28796;SDS011;24974;54.444;18.560;2023-02-01T19:14:39;20.88;;;6.47;;
28796;SDS011;24974;54.444;18.560;2023-02-01T19:17:12;22.50;;;7.03;;
28796;SDS011;24974;54.444;18.560;2023-02-01T19:19:42;16.70;;;7.15;;
28796;SDS011;24974;54.444;18.560;2023-02-01T19:22:15;29.02;;;8.10;;
28796;SDS011;24974;54.444;18.560;2023-02-01T19:24:46;26.38;;;9.00;;
28796;SDS011;24974;54.444;18.560;2023-02-01T19:27:17;18.00;;;7.25;;
28796;SDS011;24974;54.444;18.560;2023-02-01T19:29:48;17.23;;;7.18;;
28796;SDS011;24974;54.444;18.560;2023-02-01T19:32:19;19.70;;;7.32;;
28796;SDS011;24974;54.444;18.560;2023-02-01T19:34:50;19.88;;;7.30;;
28796;SDS011;24974;54.444;18.560;2023-02-01T19:37:21;16.65;;;7.03;;
28796;SDS011;24974;54.444;18.560;2023-02-01T19:39:52;22.05;;;7.10;;
28796;SDS011;24974;54.444;18.560;2023-02-01T19:42:26;17.10;;;7.60;;
28796;SDS011;24974;54.444;18.560;2023-02-01T19:44:59;16.33;;;7.28;;
28796;SDS011;24974;54.444;18.560;2023-02-01T19:47:30;19.30;;;7.18;;
28796;SDS011;24974;54.444;18.560;2023-02-01T19:50:01;15.05;;;7.05;;
28796;SDS011;24974;54.444;18.560;2023-02-01T19:52:36;13.10;;;6.75;;
28796;SDS011;24974;54.444;18.560;2023-02-01T19:55:07;11.85;;;6.75;;
28796;SDS011;24974;54.444;18.560;2023-02-01T19:57:38;13.90;;;6.70;;
28796;SDS011;24974;54.444;18.560;2023-02-01T20:00:09;15.98;;;6.43;;
28796;SDS011;24974;54.444;18.560;2023-02-01T20:02:41;15.77;;;6.75;;
28796;SDS011;24974;54.444;18.560;2023-02-01T20:05:12;12.77;;;6.07;;
28796;SDS011;24974;54.444;18.560;2023-02-01T20:07:42;10.80;;;6.15;;
28796;SDS011;24974;54.444;18.560;2023-02-01T20:10:13;13.60;;;6.80;;
28796;SDS011;24974;54.444;18.560;2023-02-01T20:12:47;11.35;;;6.00;;
28796;SDS011;24974;54.444;18.560;2023-02-01T20:15:18;16.55;;;5.85;;
28796;SDS011;24974;54.444;18.560;2023-02-01T20:17:54;14.43;;;5.10;;
28796;SDS011;24974;54.444;18.560;2023-02-01T20:20:25;16.70;;;6.57;;
28796;SDS011;24974;54.444;18.560;2023-02-01T20:22:56;11.98;;;5.90;;
28796;SDS011;24974;54.444;18.560;2023-02-01T20:25:26;11.40;;;6.13;;
28796;SDS011;24974;54.444;18.560;2023-02-01T20:27:57;19.55;;;6.88;;
28796;SDS011;24974;54.444;18.560;2023-02-01T20:30:29;16.92;;;6.93;;
28796;SDS011;24974;54.444;18.560;2023-02-01T20:33:01;17.10;;;6.60;;
28796;SDS011;24974;54.444;18.560;2023-02-01T20:35:32;13.23;;;6.30;;
28796;SDS011;24974;54.444;18.560;2023-02-01T20:38:03;11.93;;;6.30;;
28796;SDS011;24974;54.444;18.560;2023-02-01T20:40:35;17.80;;;6.95;;
28796;SDS011;24974;54.444;18.560;2023-02-01T20:43:07;15.55;;;7.28;;
28796;SDS011;24974;54.444;18.560;2023-02-01T20:45:38;17.13;;;6.78;;
28796;SDS011;24974;54.444;18.560;2023-02-01T20:48:12;15.00;;;6.60;;
28796;SDS011;24974;54.444;18.560;2023-02-01T20:50:44;18.30;;;6.60;;
28796;SDS011;24974;54.444;18.560;2023-02-01T20:53:15;17.98;;;7.18;;
28796;SDS011;24974;54.444;18.560;2023-02-01T20:55:46;21.25;;;6.97;;
28796;SDS011;24974;54.444;18.560;2023-02-01T20:58:20;13.45;;;6.53;;
28796;SDS011;24974;54.444;18.560;2023-02-01T21:00:51;11.70;;;5.82;;
28796;SDS011;24974;54.444;18.560;2023-02-01T21:03:23;20.27;;;6.22;;
28796;SDS011;24974;54.444;18.560;2023-02-01T21:05:55;18.98;;;7.50;;
28796;SDS011;24974;54.444;18.560;2023-02-01T21:08:28;16.33;;;6.22;;
28796;SDS011;24974;54.444;18.560;2023-02-01T21:11:04;18.20;;;6.88;;
28796;SDS011;24974;54.444;18.560;2023-02-01T21:13:40;13.93;;;6.05;;
28796;SDS011;24974;54.444;18.560;2023-02-01T21:16:13;16.10;;;5.90;;
28796;SDS011;24974;54.444;18.560;2023-02-01T21:18:48;11.07;;;5.00;;
28796;SDS011;24974;54.444;18.560;2023-02-01T21:21:19;9.38;;;5.45;;
28796;SDS011;24974;54.444;18.560;2023-02-01T21:23:50;11.32;;;5.35;;
28796;SDS011;24974;54.444;18.560;2023-02-01T21:26:23;8.52;;;5.25;;
28796;SDS011;24974;54.444;18.560;2023-02-01T21:28:55;13.50;;;6.32;;
28796;SDS011;24974;54.444;18.560;2023-02-01T21:31:26;10.88;;;5.63;;
28796;SDS011;24974;54.444;18.560;2023-02-01T21:33:57;9.55;;;5.45;;
28796;SDS011;24974;54.444;18.560;2023-02-01T21:36:28;10.30;;;5.80;;
28796;SDS011;24974;54.444;18.560;2023-02-01T21:39:04;16.33;;;7.10;;
28796;SDS011;24974;54.444;18.560;2023-02-01T21:41:37;12.63;;;6.43;;
28796;SDS011;24974;54.444;18.560;2023-02-01T21:44:27;10.30;;;5.93;;
28796;SDS011;24974;54.444;18.560;2023-02-01T21:46:58;11.13;;;6.35;;
28796;SDS011;24974;54.444;18.560;2023-02-01T21:49:29;11.57;;;6.47;;
28796;SDS011;24974;54.444;18.560;2023-02-01T21:52:00;12.95;;;6.53;;
28796;SDS011;24974;54.444;18.560;2023-02-01T21:54:31;8.90;;;5.93;;
28796;SDS011;24974;54.444;18.560;2023-02-01T21:57:02;10.57;;;6.15;;
28796;SDS011;24974;54.444;18.560;2023-02-01T21:59:33;15.80;;;6.53;;
28796;SDS011;24974;54.444;18.560;2023-02-01T22:02:05;15.82;;;6.63;;
28796;SDS011;24974;54.444;18.560;2023-02-01T22:05:06;10.93;;;6.55;;
28796;SDS011;24974;54.444;18.560;2023-02-01T22:07:37;11.88;;;6.82;;
28796;SDS011;24974;54.444;18.560;2023-02-01T22:10:08;11.32;;;7.05;;
28796;SDS011;24974;54.444;18.560;2023-02-01T22:12:42;13.38;;;7.82;;
28796;SDS011;24974;54.444;18.560;2023-02-01T22:15:13;13.88;;;9.43;;
28796;SDS011;24974;54.444;18.560;2023-02-01T22:17:44;16.15;;;9.43;;
28796;SDS011;24974;54.444;18.560;2023-02-01T22:20:15;15.80;;;9.20;;
28796;SDS011;24974;54.444;18.560;2023-02-01T22:22:46;15.07;;;9.18;;
28796;SDS011;24974;54.444;18.560;2023-02-01T22:25:17;16.08;;;8.85;;
28796;SDS011;24974;54.444;18.560;2023-02-01T22:27:48;13.45;;;7.82;;
28796;SDS011;24974;54.444;18.560;2023-02-01T22:30:22;12.05;;;6.40;;
28796;SDS011;24974;54.444;18.560;2023-02-01T22:32:53;12.25;;;7.38;;
28796;SDS011;24974;54.444;18.560;2023-02-01T22:35:24;11.60;;;7.00;;
28796;SDS011;24974;54.444;18.560;2023-02-01T22:37:54;14.00;;;7.53;;
28796;SDS011;24974;54.444;18.560;2023-02-01T22:40:25;10.15;;;7.53;;
28796;SDS011;24974;54.444;18.560;2023-02-01T22:42:56;8.70;;;6.80;;
28796;SDS011;24974;54.444;18.560;2023-02-01T22:45:27;12.55;;;6.18;;
28796;SDS011;24974;54.444;18.560;2023-02-01T22:47:59;13.82;;;6.63;;
28796;SDS011;24974;54.444;18.560;2023-02-01T22:50:30;7.65;;;5.45;;
28796;SDS011;24974;54.444;18.560;2023-02-01T22:53:01;12.52;;;5.55;;
28796;SDS011;24974;54.444;18.560;2023-02-01T22:55:36;5.78;;;4.72;;
28796;SDS011;24974;54.444;18.560;2023-02-01T22:58:07;8.60;;;4.80;;
28796;SDS011;24974;54.444;18.560;2023-02-01T23:00:38;7.40;;;4.72;;
28796;SDS011;24974;54.444;18.560;2023-02-01T23:03:09;5.82;;;3.92;;
28796;SDS011;24974;54.444;18.560;2023-02-01T23:05:40;5.75;;;4.53;;
28796;SDS011;24974;54.444;18.560;2023-02-01T23:08:11;4.80;;;3.90;;
28796;SDS011;24974;54.444;18.560;2023-02-01T23:10:42;6.78;;;4.45;;
28796;SDS011;24974;54.444;18.560;2023-02-01T23:13:13;6.00;;;4.10;;
28796;SDS011;24974;54.444;18.560;2023-02-01T23:15:43;5.50;;;3.70;;
28796;SDS011;24974;54.444;18.560;2023-02-01T23:18:14;4.88;;;4.18;;
28796;SDS011;24974;54.444;18.560;2023-02-01T23:20:45;4.70;;;4.22;;
28796;SDS011;24974;54.444;18.560;2023-02-01T23:23:16;5.15;;;4.13;;
28796;SDS011;24974;54.444;18.560;2023-02-01T23:25:48;6.85;;;5.03;;
28796;SDS011;24974;54.444;18.560;2023-02-01T23:28:20;6.10;;;5.10;;
28796;SDS011;24974;54.444;18.560;2023-02-01T23:30:51;4.20;;;3.80;;
28796;SDS011;24974;54.444;18.560;2023-02-01T23:33:23;5.63;;;4.43;;
28796;SDS011;24974;54.444;18.560;2023-02-01T23:35:56;6.65;;;4.43;;
28796;SDS011;24974;54.444;18.560;2023-02-01T23:38:28;5.68;;;3.90;;
28796;SDS011;24974;54.444;18.560;2023-02-01T23:41:00;4.30;;;3.85;;
28796;SDS011;24974;54.444;18.560;2023-02-01T23:43:34;7.47;;;4.43;;